Accueil
METAR-TAF:

METAR-TAF

Aéroports :

Boscombe Down, Angleterre

latitude: 51-10N, longitude: 001-45W, altitude: 124 m

Observation

Le bulletin a été fait il y a 1 heure et 13 minutes, à 21:50 UTC
Vent 11 kt de sud/sud-est
Température 14°C
Humidité 100%
Pression 1021 hPa
Visibilité: 5000 m
faible bruine

METAR: EGDM 202150Z AUTO 15011KT 5000 -DZ OVC002/// 14/14 Q1021

Heure: 00:03 (23:03 UTC)


TAF: absent

Observations et prévisions météorologiques de plus de 4000 aéroports (messages METAR et TAF).

Les stations disponibles sont représentées par des disques jaunes et rouges sur la carte.

Passer la souris dessus pour voir le nom de la station.

Cliquer dessus pour voir les observations et prévisions météorologiques.

Pour changer de carte: cliquez sur les boutons verts avec une croix noire pour zoomer, sur le bouton vert avec un tiret pour effectuer un zoom arrière, ou sur les flèches vertes pour les cartes adjacentes.


METAR-TAF: